Ana Sayfa
METAR-TAF:

METAR-TAF

Havaalanları :

Tôlanaro, Madagaskar

Enlem: 25-02S, Boylam: 046-57E, yükseklik: 8 m

Güncel hava durumu gözlemi

Rapor saat 20:00 UTC de 47 dakika önce yapıldı.
Rüzgar kuzeydoğudan 23 kt
Sıcaklık 24°C
Nem 89%
Basınç 1012 hPa
Görüş mesafesi 10 km veya daha fazla
1600 ft yükseklikte az bulutlu

METAR: FMSD 212000Z 04023KT 9999 FEW016 24/22 Q1012

Saat: 23:47 (20:47 UTC)

Tahmin

Rapor saat 17:00 UTC de 3 saat ve 47 dakika önce yapıldı.
Ayın 21'si saat 18 UTC'den ayın 22'si saat 18 UTC'ye kadar geçerli Tahmin
Rüzgar kuzeydoğudan 15 kt ve 25 kt'a kadar ani rüzgarlar
Görüş mesafesi 10 km veya daha fazla
2000 ft yükseklikte az bulutlu

TAF: FMSD 211700Z 2118/2218 04015G25KT 9999 FEW020

4.000'den fazla havaalanı için hava durumu gözlemleri ve tahminleri (METAR ve TAF raporları).

Kullanılabilir istasyonlar harita üzerinde sarı ve kırmızı noktalarla gösterilir.

İstasyonun adını görmek için fareyi noktanın üzerinde gezdirin.

Sonrasında hava gözlem ve tahminlerini görmek için tıklayın.

Haritayı değiştirmek için: yaklaştırmak için siyah artı işaretli yeşil düğmeye ve uzaklaştırmak için de eksi işaretli düğmeye hızla tıklayın; bitişik haritalar için yeşil okları kullanın.


METAR-TAF: